This is the latest recevied weather packets stored in our database for station/object Dunnningn. If no packets are shown the sender has not sent any weather packets the latest 10 day(s).
| Time | Temp. | Humidity | Pressure | Rain* | Wind** | Luminosity | Snow |
|---|---|---|---|---|---|---|---|
| 1777032130 | 18.89° C | 22% | 1021.4 hPa | 0 mm | - | - | - |
| 1777030332 | 18.89° C | 25% | 1021.7 hPa | 0 mm | - | - | - |
| 1777028532 | 17.78° C | 26% | 1021.9 hPa | 0 mm | - | - | - |
| 1777026733 | 17.22° C | 33% | 1022.2 hPa | 0 mm | - | - | - |
| 1777024930 | 17.22° C | 36% | 1022.3 hPa | 0 mm | - | - | - |
| 1777023130 | 16.11° C | 33% | 1022.3 hPa | 0 mm | - | - | - |
| 1777021336 | 15.56° C | 36% | 1022.4 hPa | 0 mm | - | - | - |
| 1777019531 | 14.44° C | 45% | 1022.5 hPa | 0 mm | - | - | - |
| 1777017732 | 13.33° C | 46% | 1022.5 hPa | 0 mm | - | - | - |
| 1777015932 | 11.11° C | 46% | 1022.4 hPa | 0 mm | - | - | - |
| 1777014133 | 8.33° C | 61% | 1022.6 hPa | 0 mm | - | - | - |
| 1777012337 | 1.67° C | 84% | 1022.7 hPa | 0 mm | - | - | - |
| 1777010530 | 0° C | 85% | 1022.9 hPa | 0 mm | - | - | - |
| 1777008731 | -1.11° C | 83% | 1023 hPa | 0 mm | - | - | - |
| 1777006932 | -1.11° C | 83% | 1023.1 hPa | 0 mm | - | - | - |
| 1777005132 | -1.11° C | 81% | 1023.1 hPa | 0 mm | - | - | - |
| 1777003331 | -0.56° C | 81% | 1023 hPa | 0 mm | - | - | - |
| 1777001531 | -0.56° C | 80% | 1023.3 hPa | 0 mm | - | - | - |
| 1776999731 | 0° C | 79% | 1023.3 hPa | 0 mm | - | - | - |
| 1776997931 | 0.56° C | 77% | 1023.5 hPa | 0 mm | - | - | - |
* Rain since midnight (hover to see other rain measurements)
** Current wind speed in m/s (hover to see current wind gust speed)